Time;durP1;ratioP1;P1;durP2;ratioP2;P2;SDS_P1;SDS_P2;PMS_P1;PMS_P2;Temp;Humidity;BMP_temperature;BMP_pressure;BME280_temperature;BME280_humidity;BME280_pressure;Samples;Min_cycle;Max_cycle;Signal;HPM_P1;HPM_P2
2023/03/23 00:02:40;;;;;;;5.30;1.88;;;;;;;9.44;100.00;96474.44;5065102;28;20124;-83
2023/03/23 00:05:24;;;;;;;7.50;1.80;;;;;;;9.16;100.00;96470.28;5062650;28;20044;-83
2023/03/23 00:08:12;;;;;;;11.65;1.98;;;;;;;9.40;100.00;96479.38;5061427;28;20497;-82
2023/03/23 00:10:58;;;;;;;5.38;1.90;;;;;;;9.44;100.00;96492.75;5061509;28;20043;-83
2023/03/23 00:13:43;;;;;;;4.95;1.80;;;;;;;9.50;100.00;96499.59;5061673;28;20082;-84
2023/03/23 00:16:31;;;;;;;11.57;2.30;;;;;;;9.70;100.00;96509.44;5056326;28;20044;-84
2023/03/23 00:19:19;;;;;;;9.07;2.25;;;;;;;9.63;100.00;96513.31;5060020;28;20103;-84
2023/03/23 00:22:04;;;;;;;6.00;2.10;;;;;;;9.62;100.00;96501.25;5058758;28;20063;-84
2023/03/23 00:24:51;;;;;;;8.50;2.33;;;;;;;9.66;100.00;96494.50;5058880;28;20082;-83
2023/03/23 00:27:35;;;;;;;6.82;2.28;;;;;;;9.50;100.00;96502.22;5059452;28;20430;-85
2023/03/23 00:30:20;;;;;;;8.05;2.20;;;;;;;9.56;100.00;96509.06;5059861;28;20036;-84
2023/03/23 00:33:03;;;;;;;7.85;1.90;;;;;;;9.31;100.00;96511.50;5062415;28;20498;-83
2023/03/23 00:35:48;;;;;;;6.88;1.67;;;;;;;9.55;100.00;96515.34;5062289;28;20052;-85
2023/03/23 00:38:32;;;;;;;7.82;3.00;;;;;;;9.34;100.00;96522.25;5057706;28;20708;-84
2023/03/23 00:41:16;;;;;;;10.38;2.00;;;;;;;9.33;100.00;96515.41;5064685;28;20043;-86
2023/03/23 00:44:00;;;;;;;9.50;2.83;;;;;;;9.11;100.00;96518.88;5066615;28;20059;-84
2023/03/23 00:46:48;;;;;;;6.93;1.95;;;;;;;9.17;100.00;96537.28;5057182;28;20079;-83
2023/03/23 00:49:34;;;;;;;11.95;2.10;;;;;;;8.90;100.00;96527.56;5063993;28;20043;-84
2023/03/23 00:52:18;;;;;;;10.95;2.25;;;;;;;9.00;100.00;96525.06;5061647;28;20083;-85
2023/03/23 00:55:02;;;;;;;9.73;2.88;;;;;;;8.89;100.00;96545.13;5061786;28;20075;-85
2023/03/23 00:57:47;;;;;;;10.88;3.42;;;;;;;9.00;100.00;96549.41;5056437;28;20503;-84
2023/03/23 01:00:32;;;;;;;10.77;2.30;;;;;;;8.83;100.00;96546.06;5060177;28;20051;-84
2023/03/23 01:03:18;;;;;;;5.40;1.60;;;;;;;8.75;100.00;96538.66;5059318;28;20047;-84
2023/03/23 01:06:12;;;;;;;8.15;1.63;;;;;;;8.79;100.00;96543.16;5057320;28;20093;-83
2023/03/23 01:08:58;;;;;;;12.75;2.38;;;;;;;8.48;100.00;96536.75;5060891;28;20059;-85
2023/03/23 01:11:44;;;;;;;15.40;2.67;;;;;;;8.40;100.00;96551.81;5061355;28;20067;-83
2023/03/23 01:14:28;;;;;;;18.92;3.75;;;;;;;8.22;100.00;96544.25;5059151;28;20111;-82
2023/03/23 01:17:12;;;;;;;10.88;2.25;;;;;;;8.19;100.00;96539.50;5058719;28;20082;-81
2023/03/23 01:19:56;;;;;;;10.20;2.38;;;;;;;8.52;100.00;96551.72;5064298;28;20101;-84
2023/03/23 01:22:42;;;;;;;9.65;2.15;;;;;;;8.21;100.00;96532.22;5060551;28;20044;-82
2023/03/23 01:25:28;;;;;;;7.88;2.03;;;;;;;8.33;100.00;96545.19;5059371;28;20039;-84
2023/03/23 01:28:12;;;;;;;8.05;1.98;;;;;;;8.34;100.00;96547.56;5061260;28;20448;-84
2023/03/23 01:31:00;;;;;;;9.45;2.00;;;;;;;8.40;100.00;96562.28;5057681;28;20044;-83
2023/03/23 01:33:45;;;;;;;10.13;2.45;;;;;;;8.35;100.00;96562.22;5060398;28;20048;-83
2023/03/23 01:36:32;;;;;;;11.40;2.55;;;;;;;8.43;100.00;96563.63;5065542;28;21561;-84
2023/03/23 01:39:18;;;;;;;12.00;2.17;;;;;;;8.27;100.00;96609.69;5063840;28;20702;-84
2023/03/23 01:42:02;;;;;;;6.88;1.73;;;;;;;8.12;100.00;96577.06;5067370;28;20036;-85
2023/03/23 01:44:46;;;;;;;13.38;2.78;;;;;;;8.18;100.00;96584.97;5062072;28;20075;-85
2023/03/23 01:47:30;;;;;;;8.25;2.15;;;;;;;8.12;100.00;96602.38;5063261;28;20390;-84
2023/03/23 01:50:14;;;;;;;10.57;2.30;;;;;;;8.17;100.00;96599.06;5064309;28;20047;-85
2023/03/23 01:53:01;;;;;;;10.15;2.58;;;;;;;8.27;100.00;96604.44;5057809;28;20513;-84
2023/03/23 01:55:50;;;;;;;6.07;1.90;;;;;;;8.19;100.00;96600.41;5065546;28;20121;-84
2023/03/23 01:58:37;;;;;;;10.73;2.03;;;;;;;8.19;100.00;96599.63;5062680;28;20517;-85
2023/03/23 02:01:24;;;;;;;13.68;2.75;;;;;;;8.14;100.00;96598.50;5066710;28;20040;-83
2023/03/23 02:04:09;;;;;;;13.48;2.08;;;;;;;8.06;100.00;96601.53;5062519;28;20087;-82
2023/03/23 02:06:56;;;;;;;11.82;2.30;;;;;;;8.07;100.00;96603.13;5064142;28;20039;-83
2023/03/23 02:09:40;;;;;;;12.77;3.33;;;;;;;8.26;100.00;96608.09;5068520;28;20047;-84
2023/03/23 02:12:24;;;;;;;8.05;2.42;;;;;;;8.25;100.00;96601.25;5067841;28;20048;-84
2023/03/23 02:15:09;;;;;;;13.18;2.88;;;;;;;8.28;100.00;96606.81;5065243;28;20036;-84
2023/03/23 02:18:08;;;;;;;18.10;2.80;;;;;;;8.29;100.00;96597.16;5057650;28;20036;-82
2023/03/23 02:21:22;;;;;;;14.25;3.45;;;;;;;8.14;100.00;96601.13;5064254;28;20030;-85
2023/03/23 02:24:36;;;;;;;;;;;;;;;8.12;100.00;96603.19;5067506;28;20115;-83
2023/03/23 02:27:57;;;;;;;10.80;2.53;;;;;;;8.23;100.00;96613.78;5062465;28;19919;-83
2023/03/23 02:31:07;;;;;;;12.32;2.10;;;;;;;7.95;100.00;96607.63;5061477;28;20036;-85
2023/03/23 02:34:09;;;;;;;11.07;1.88;;;;;;;7.97;100.00;96608.19;5063524;28;20093;-83
2023/03/23 02:37:02;;;;;;;12.35;2.13;;;;;;;8.10;100.00;96627.97;5058925;28;20487;-85
2023/03/23 02:39:53;;;;;;;17.80;2.72;;;;;;;7.90;100.00;96610.16;5061581;28;20071;-83
2023/03/23 02:42:41;;;;;;;13.77;2.38;;;;;;;7.93;100.00;96613.06;5061757;28;20098;-84
2023/03/23 02:45:29;;;;;;;15.25;2.40;;;;;;;8.08;100.00;96603.91;5064609;28;20044;-84
2023/03/23 02:48:18;;;;;;;11.20;2.20;;;;;;;7.84;100.00;96606.69;5065241;28;20048;-84
2023/03/23 02:51:04;;;;;;;14.32;2.65;;;;;;;7.93;100.00;96617.53;5058909;28;20154;-86
2023/03/23 02:53:51;;;;;;;10.13;2.60;;;;;;;8.05;100.00;96617.44;5064257;28;20572;-84
2023/03/23 02:56:36;;;;;;;9.88;2.88;;;;;;;8.07;100.00;96626.63;5061165;28;20044;-84
2023/03/23 02:59:20;;;;;;;14.13;2.78;;;;;;;8.05;100.00;96633.91;5060339;28;20092;-83
2023/03/23 03:02:14;;;;;;;11.98;2.50;;;;;;;7.99;100.00;96611.34;5063932;28;20524;-82
2023/03/23 03:05:09;;;;;;;;;;;;;;;7.97;100.00;96639.53;5062734;28;20127;-83
2023/03/23 03:07:59;;;;;;;;;;;;;;;7.82;100.00;96640.84;5062120;28;19920;-83
2023/03/23 03:10:43;;;;;;;12.57;2.33;;;;;;;7.05;100.00;96644.69;5062448;28;19923;-82
2023/03/23 03:13:46;;;;;;;15.82;3.13;;;;;;;7.00;100.00;96646.16;5062225;28;20090;-83
2023/03/23 03:16:40;;;;;;;22.00;2.58;;;;;;;6.94;100.00;96649.69;5056798;28;20048;-82
2023/03/23 03:19:39;;;;;;;8.13;1.73;;;;;;;6.97;100.00;96657.06;5062282;28;20048;-83
2023/03/23 03:22:28;;;;;;;10.98;2.47;;;;;;;6.96;100.00;96667.72;5061155;28;20097;-81
2023/03/23 03:25:15;;;;;;;13.80;3.75;;;;;;;6.90;100.00;96661.63;5058914;28;20075;-82
2023/03/23 03:27:59;;;;;;;14.65;3.45;;;;;;;6.92;100.00;96656.16;5059698;28;20094;-83
2023/03/23 03:30:46;;;;;;;14.88;2.50;;;;;;;6.90;100.00;96664.22;5061480;28;20052;-83
2023/03/23 03:33:34;;;;;;;13.70;2.25;;;;;;;6.78;100.00;96674.69;5054302;28;20047;-83
2023/03/23 03:36:26;;;;;;;13.60;2.42;;;;;;;7.72;100.00;96672.03;5063563;28;20102;-84
2023/03/23 03:39:10;;;;;;;12.43;2.50;;;;;;;7.86;100.00;96682.97;5061423;28;20494;-83
2023/03/23 03:41:55;;;;;;;18.83;3.20;;;;;;;7.80;100.00;96663.81;5056498;28;20063;-84
2023/03/23 03:44:39;;;;;;;16.58;2.78;;;;;;;7.93;100.00;96680.22;5058622;28;20097;-82
2023/03/23 03:47:23;;;;;;;14.00;2.88;;;;;;;7.84;100.00;96674.59;5060244;28;20036;-82
2023/03/23 03:50:08;;;;;;;17.65;3.40;;;;;;;7.85;100.00;96676.94;5064418;28;20059;-82
2023/03/23 03:52:52;;;;;;;15.75;2.90;;;;;;;7.75;100.00;96682.00;5059851;28;20047;-84
2023/03/23 03:55:38;;;;;;;22.13;5.22;;;;;;;7.90;100.00;96688.53;5056874;28;20060;-83
2023/03/23 03:58:22;;;;;;;16.23;2.83;;;;;;;7.71;100.00;96671.22;5060900;28;20043;-83
2023/03/23 04:01:06;;;;;;;10.27;2.75;;;;;;;7.61;100.00;96678.09;5062338;28;20063;-83
2023/03/23 04:03:50;;;;;;;17.17;3.08;;;;;;;7.71;100.00;96680.88;5066208;28;20035;-83
2023/03/23 04:06:35;;;;;;;23.38;3.10;;;;;;;7.54;100.00;96676.41;5060582;28;20452;-83
2023/03/23 04:09:19;;;;;;;17.35;3.47;;;;;;;7.69;100.00;96678.50;5060171;28;20044;-83
2023/03/23 04:12:04;;;;;;;19.98;2.75;;;;;;;7.48;100.00;96672.13;5057592;28;20127;-85
2023/03/23 04:14:48;;;;;;;19.38;3.28;;;;;;;7.65;100.00;96687.03;5059042;28;20566;-83
2023/03/23 04:17:32;;;;;;;20.20;4.03;;;;;;;7.58;100.00;96681.97;5057955;28;20166;-84
2023/03/23 04:20:17;;;;;;;23.40;3.50;;;;;;;7.53;100.00;96687.06;5063059;28;20089;-84
2023/03/23 04:23:01;;;;;;;23.77;3.10;;;;;;;7.52;100.00;96694.13;5057109;28;20098;-85
2023/03/23 04:25:46;;;;;;;28.95;3.30;;;;;;;7.62;100.00;96698.75;5059638;28;20039;-82
2023/03/23 04:28:33;;;;;;;23.30;3.50;;;;;;;7.48;100.00;96705.25;5057619;28;20044;-81
2023/03/23 04:31:17;;;;;;;20.70;4.15;;;;;;;7.56;100.00;96697.84;5062336;28;20066;-82
2023/03/23 04:34:01;;;;;;;15.98;2.60;;;;;;;7.77;100.00;96721.72;5058476;28;20044;-82
2023/03/23 04:36:49;;;;;;;17.30;3.00;;;;;;;7.48;100.00;96713.09;5058007;28;20133;-82
2023/03/23 04:39:33;;;;;;;18.05;2.95;;;;;;;7.46;100.00;96709.91;5058200;28;20094;-82
2023/03/23 04:42:18;;;;;;;16.58;3.00;;;;;;;7.56;100.00;96717.94;5061894;28;20043;-82
2023/03/23 04:45:05;;;;;;;22.02;4.18;;;;;;;7.48;100.00;96719.13;5058041;28;20040;-81
2023/03/23 04:47:57;;;;;;;16.00;3.53;;;;;;;7.43;100.00;96717.19;5046247;28;20126;-83
2023/03/23 04:50:41;;;;;;;11.98;2.60;;;;;;;7.44;100.00;96710.13;5062273;28;20464;-83
2023/03/23 04:53:25;;;;;;;23.60;3.70;;;;;;;7.43;100.00;96719.81;5058747;28;20035;-83
2023/03/23 04:56:09;;;;;;;18.70;4.25;;;;;;;7.42;100.00;96725.25;5061661;28;20128;-83
2023/03/23 04:58:53;;;;;;;17.13;3.15;;;;;;;7.52;100.00;96722.03;5062236;28;20043;-83
2023/03/23 05:01:38;;;;;;;23.00;3.58;;;;;;;7.40;100.00;96728.09;5058579;28;20443;-85
2023/03/23 05:04:22;;;;;;;19.38;3.42;;;;;;;7.60;100.00;96726.91;5057232;28;20048;-84
2023/03/23 05:07:08;;;;;;;23.15;3.60;;;;;;;7.68;100.00;96731.75;5059429;28;20052;-83
2023/03/23 05:09:52;;;;;;;16.20;3.35;;;;;;;7.68;100.00;96723.13;5064642;28;20091;-84
2023/03/23 05:12:36;;;;;;;26.30;4.22;;;;;;;7.58;100.00;96711.47;5061039;28;20078;-84
2023/03/23 05:15:21;;;;;;;20.55;4.03;;;;;;;7.53;100.00;96716.59;5065006;28;20090;-82
2023/03/23 05:18:05;;;;;;;15.35;3.33;;;;;;;7.40;100.00;96701.19;5061625;28;20040;-82
2023/03/23 05:20:52;;;;;;;18.80;5.38;;;;;;;7.82;100.00;96708.75;5065012;28;20043;-83
2023/03/23 05:23:36;;;;;;;31.05;4.60;;;;;;;7.71;100.00;96693.94;5061409;28;20116;-83
2023/03/23 05:26:24;;;;;;;27.95;5.05;;;;;;;7.67;100.00;96700.66;5065243;28;20387;-82
2023/03/23 05:29:08;;;;;;;26.88;3.85;;;;;;;7.66;100.00;96705.09;5064367;28;20109;-81
2023/03/23 05:31:52;;;;;;;14.75;3.47;;;;;;;7.71;100.00;96696.56;5061175;28;20089;-83
2023/03/23 05:34:37;;;;;;;26.55;4.03;;;;;;;7.60;100.00;96700.00;5061585;28;20124;-83
2023/03/23 05:37:21;;;;;;;25.88;4.20;;;;;;;7.44;100.00;96707.53;5056219;28;20566;-82
2023/03/23 05:40:06;;;;;;;23.73;3.97;;;;;;;7.49;100.00;96701.63;5061356;28;20040;-83
2023/03/23 05:42:51;;;;;;;18.70;4.45;;;;;;;7.82;100.00;96702.75;5063012;28;20090;-82
2023/03/23 05:45:35;;;;;;;31.52;4.38;;;;;;;7.56;100.00;96699.66;5065138;28;20163;-82
2023/03/23 05:48:20;;;;;;;22.30;4.35;;;;;;;7.52;100.00;96709.78;5065771;28;20167;-83
2023/03/23 05:51:04;;;;;;;22.55;3.83;;;;;;;7.54;100.00;96699.91;5065223;28;20075;-83
2023/03/23 05:53:48;;;;;;;17.67;3.47;;;;;;;7.68;100.00;96691.81;5061879;28;20078;-81
2023/03/23 05:56:32;;;;;;;22.05;4.10;;;;;;;7.58;100.00;96705.47;5066053;28;20044;-82
2023/03/23 05:59:17;;;;;;;26.52;3.85;;;;;;;7.47;100.00;96699.25;5066163;28;20094;-82
2023/03/23 06:02:01;;;;;;;18.25;3.78;;;;;;;7.49;100.00;96699.81;5060980;28;20048;-82
2023/03/23 06:04:45;;;;;;;32.00;5.40;;;;;;;7.41;100.00;96710.59;5062672;28;20094;-83
2023/03/23 06:07:29;;;;;;;34.58;4.43;;;;;;;7.20;100.00;96697.16;5059001;28;20134;-83
2023/03/23 06:10:14;;;;;;;25.08;4.45;;;;;;;7.38;100.00;96693.63;5061186;28;20114;-83
2023/03/23 06:12:58;;;;;;;29.23;4.00;;;;;;;7.55;100.00;96698.06;5062713;28;20105;-82
2023/03/23 06:15:42;;;;;;;36.40;5.00;;;;;;;7.46;100.00;96683.81;5063525;28;20044;-83
2023/03/23 06:18:28;;;;;;;25.08;4.55;;;;;;;7.51;100.00;96697.78;5059522;28;20493;-84
2023/03/23 06:21:12;;;;;;;26.50;4.15;;;;;;;7.58;100.00;96698.41;5060255;28;20105;-86
2023/03/23 06:23:56;;;;;;;24.90;4.25;;;;;;;7.33;100.00;96690.09;5062170;28;20051;-85
2023/03/23 06:26:41;;;;;;;30.05;4.15;;;;;;;7.41;100.00;96692.34;5066236;28;20168;-85
2023/03/23 06:29:25;;;;;;;19.30;3.58;;;;;;;7.50;100.00;96690.16;5062413;28;20044;-84
2023/03/23 06:32:12;;;;;;;21.45;5.63;;;;;;;7.41;100.00;96671.47;5053699;28;20430;-85
2023/03/23 06:34:56;;;;;;;31.38;4.35;;;;;;;7.38;100.00;96688.41;5059725;28;20052;-84
2023/03/23 06:37:41;;;;;;;26.83;3.90;;;;;;;7.68;100.00;96691.81;5061880;28;20559;-87
2023/03/23 06:40:25;;;;;;;19.02;4.57;;;;;;;7.88;100.00;96687.97;5059722;28;20047;-84
2023/03/23 06:43:09;;;;;;;26.95;4.40;;;;;;;7.98;100.00;96690.75;5063978;28;20059;-85
2023/03/23 06:45:53;;;;;;;35.22;5.50;;;;;;;7.82;100.00;96694.91;5062278;28;20052;-84
2023/03/23 06:48:38;;;;;;;22.70;4.70;;;;;;;8.15;100.00;96688.94;5059147;28;20052;-83
2023/03/23 06:51:22;;;;;;;26.05;3.97;;;;;;;8.26;100.00;96689.91;5060833;28;20047;-83
2023/03/23 06:54:06;;;;;;;34.70;5.30;;;;;;;8.27;100.00;96683.63;5063551;28;20482;-83
2023/03/23 06:56:50;;;;;;;25.63;5.47;;;;;;;8.35;100.00;96702.56;5060952;28;22010;-83
2023/03/23 06:59:34;;;;;;;29.77;4.50;;;;;;;8.32;100.00;96688.16;5061533;28;20044;-84
2023/03/23 07:02:18;;;;;;;23.33;4.05;;;;;;;8.44;100.00;96694.06;5055146;28;20451;-84
2023/03/23 07:05:03;;;;;;;27.30;5.07;;;;;;;8.33;100.00;96702.81;5061064;28;20501;-84
2023/03/23 07:07:47;;;;;;;29.42;4.65;;;;;;;8.50;100.00;96694.19;5062076;28;20406;-83
2023/03/23 07:10:32;;;;;;;28.58;5.05;;;;;;;8.59;100.00;96699.81;5064173;28;20134;-83
2023/03/23 07:13:16;;;;;;;30.10;5.32;;;;;;;8.60;100.00;96691.72;5056267;28;20437;-82
2023/03/23 07:16:00;;;;;;;22.77;4.63;;;;;;;8.66;100.00;96706.47;5061314;28;20175;-84
2023/03/23 07:18:53;;;;;;;29.17;6.32;;;;;;;8.82;100.00;96694.41;5059895;28;20091;-85
2023/03/23 07:21:37;;;;;;;26.77;5.15;;;;;;;8.86;100.00;96676.41;5058009;28;20102;-85
2023/03/23 07:24:22;;;;;;;26.60;4.88;;;;;;;8.99;100.00;96673.41;5062908;28;20225;-86
2023/03/23 07:27:06;;;;;;;27.17;5.70;;;;;;;8.95;100.00;96682.00;5060891;28;20098;-84
2023/03/23 07:29:50;;;;;;;32.17;5.88;;;;;;;9.07;100.00;96690.53;5060320;28;20113;-83
2023/03/23 07:32:34;;;;;;;27.02;5.10;;;;;;;9.18;100.00;96694.06;5060696;28;20039;-84
2023/03/23 07:35:19;;;;;;;26.02;4.70;;;;;;;9.29;100.00;96692.34;5060924;28;20642;-85
2023/03/23 07:38:06;;;;;;;28.08;5.22;;;;;;;9.41;100.00;96692.22;5058463;28;20099;-81
2023/03/23 07:40:52;;;;;;;19.25;4.75;;;;;;;9.48;100.00;96685.00;5067891;28;20121;-87
2023/03/23 07:43:36;;;;;;;33.90;5.70;;;;;;;9.42;100.00;96675.47;5069871;28;20382;-81
2023/03/23 07:46:20;;;;;;;28.65;5.13;;;;;;;9.48;100.00;96676.31;5059203;28;20494;-82
2023/03/23 07:49:05;;;;;;;26.13;4.65;;;;;;;9.45;100.00;96676.81;5057921;28;20035;-81
2023/03/23 07:51:49;;;;;;;21.55;5.18;;;;;;;9.34;100.00;96683.78;5055361;28;20048;-81
2023/03/23 07:54:34;;;;;;;21.02;5.43;;;;;;;9.54;100.00;96677.97;5057711;28;20498;-82
2023/03/23 07:57:18;;;;;;;29.73;4.75;;;;;;;9.58;100.00;96682.47;5059296;28;20044;-82
2023/03/23 08:00:14;;;;;;;36.92;5.47;;;;;;;9.45;100.00;96679.44;5064612;28;20927;-81
2023/03/23 08:02:59;;;;;;;23.80;5.80;;;;;;;9.80;100.00;96679.00;5058264;28;20043;-81
2023/03/23 08:05:43;;;;;;;41.70;6.35;;;;;;;9.95;100.00;96682.81;5067464;28;20131;-88
2023/03/23 08:08:27;;;;;;;41.78;6.22;;;;;;;10.03;100.00;96690.25;5060694;28;20410;-90
2023/03/23 08:11:12;;;;;;;25.25;6.00;;;;;;;10.07;100.00;96696.56;5062189;28;20048;-88
2023/03/23 08:13:56;;;;;;;31.80;5.63;;;;;;;9.97;100.00;96680.72;5070759;28;20045;-89
2023/03/23 08:16:40;;;;;;;32.22;5.20;;;;;;;10.09;100.00;96686.63;5067229;28;20129;-91
2023/03/23 08:19:24;;;;;;;25.13;4.95;;;;;;;10.04;100.00;96702.31;5061626;28;20454;-89
2023/03/23 08:22:09;;;;;;;25.48;4.30;;;;;;;10.04;100.00;96678.72;5060430;28;20063;-89
2023/03/23 08:24:54;;;;;;;26.48;5.10;;;;;;;10.32;100.00;96686.50;5063933;28;20098;-90
2023/03/23 08:27:43;;;;;;;29.52;6.05;;;;;;;10.38;100.00;96681.06;5068099;28;20539;-89
2023/03/23 08:30:29;;;;;;;22.67;5.82;;;;;;;10.45;100.00;96669.59;5059311;28;20052;-89
2023/03/23 08:33:14;;;;;;;17.02;4.50;;;;;;;10.65;100.00;96695.97;5066461;28;20032;-91
2023/03/23 08:35:59;;;;;;;25.75;5.00;;;;;;;10.67;100.00;96686.00;5059566;28;20064;-87
2023/03/23 08:38:44;;;;;;;28.83;4.45;;;;;;;10.93;100.00;96683.53;5069298;28;20075;-87
2023/03/23 08:41:28;;;;;;;32.17;5.45;;;;;;;10.87;100.00;96679.31;5060255;28;20472;-88
2023/03/23 08:44:13;;;;;;;29.30;5.78;;;;;;;10.97;100.00;96681.97;5052084;28;20070;-88
2023/03/23 08:46:57;;;;;;;21.63;5.55;;;;;;;11.08;100.00;96689.91;5065212;28;20078;-89
2023/03/23 08:49:42;;;;;;;22.80;5.82;;;;;;;11.43;100.00;96698.97;5063463;28;20102;-88
2023/03/23 08:52:26;;;;;;;27.90;6.53;;;;;;;11.31;100.00;96693.94;5070131;28;20052;-89
2023/03/23 08:55:15;;;;;;;35.63;6.15;;;;;;;11.38;100.00;96685.81;5055989;28;20116;-86
2023/03/23 08:57:59;;;;;;;38.72;7.57;;;;;;;11.57;100.00;96689.53;5062468;28;20047;-87
2023/03/23 09:00:43;;;;;;;30.25;6.07;;;;;;;11.66;100.00;96702.97;5063776;28;20402;-86
2023/03/23 09:03:28;;;;;;;27.92;5.85;;;;;;;11.84;100.00;96693.81;5061619;28;20044;-87
2023/03/23 09:06:12;;;;;;;23.48;5.05;;;;;;;11.74;100.00;96695.66;5062725;28;20116;-87
2023/03/23 09:08:56;;;;;;;26.30;5.55;;;;;;;11.82;100.00;96701.19;5065875;28;20116;-90
2023/03/23 09:11:41;;;;;;;27.98;5.70;;;;;;;11.92;100.00;96696.97;5069135;28;20128;-89
2023/03/23 09:14:25;;;;;;;24.85;4.40;;;;;;;11.68;100.00;96692.22;5068263;28;20040;-91
2023/03/23 09:17:10;;;;;;;19.10;4.35;;;;;;;11.91;100.00;96698.84;5071919;28;20036;-86
2023/03/23 09:19:54;;;;;;;23.90;4.30;;;;;;;12.05;100.00;96696.50;5068724;28;20111;-88
2023/03/23 09:22:40;;;;;;;26.42;4.75;;;;;;;12.25;100.00;96697.56;5063540;28;20043;-85
2023/03/23 09:25:27;;;;;;;22.85;5.28;;;;;;;12.12;100.00;96678.63;5052354;28;20044;-83
2023/03/23 09:28:11;;;;;;;22.23;5.05;;;;;;;12.25;100.00;96676.53;5059674;28;20063;-86
2023/03/23 09:30:58;;;;;;;26.67;5.40;;;;;;;12.41;100.00;96693.88;5068180;28;20051;-88
2023/03/23 09:33:46;;;;;;;18.48;4.10;;;;;;;12.63;100.00;96708.59;5080160;28;20035;-89
2023/03/23 09:36:31;;;;;;;15.48;4.70;;;;;;;12.55;100.00;96675.72;5063516;28;20080;-88
2023/03/23 09:39:16;;;;;;;24.20;4.55;;;;;;;12.47;100.00;96688.63;5056621;28;20568;-89
2023/03/23 09:42:12;;;;;;;18.85;4.25;;;;;;;12.53;100.00;96708.59;5061445;28;20046;-88
2023/03/23 09:45:11;;;;;;;29.55;4.72;;;;;;;12.49;100.00;96703.09;5062658;28;20133;-89
2023/03/23 09:48:33;;;;;;;23.45;4.53;;;;;;;12.71;100.00;96704.63;5066135;28;20036;-88
2023/03/23 09:51:45;;;;;;;16.90;3.90;;;;;;;12.82;100.00;96706.19;5062669;28;20451;-90
2023/03/23 09:54:36;;;;;;;17.92;4.00;;;;;;;13.14;100.00;96714.78;5079444;28;20052;-88
2023/03/23 09:57:28;;;;;;;20.63;3.90;;;;;;;13.55;100.00;96722.56;5074412;28;20060;-89
2023/03/23 10:00:16;;;;;;;17.60;4.05;;;;;;;13.67;100.00;96710.91;5069229;28;20058;-84
2023/03/23 10:03:07;;;;;;;16.48;3.72;;;;;;;13.66;100.00;96707.50;5068926;28;20063;-86
2023/03/23 10:05:54;;;;;;;15.45;4.28;;;;;;;13.98;100.00;96726.56;5060350;28;20624;-86
2023/03/23 10:08:49;;;;;;;17.42;3.70;;;;;;;13.43;100.00;96735.28;5059786;28;20044;-84
2023/03/23 10:12:07;;;;;;;18.15;3.67;;;;;;;13.78;100.00;96735.38;5059197;28;20448;-85
2023/03/23 10:15:13;;;;;;;20.08;4.63;;;;;;;13.42;100.00;96737.09;5057401;28;20043;-84
2023/03/23 10:18:20;;;;;;;17.05;3.97;;;;;;;13.38;100.00;96722.88;5065171;28;20040;-84
2023/03/23 10:21:12;;;;;;;24.13;4.45;;;;;;;13.35;100.00;96741.06;5058897;28;20071;-84
2023/03/23 10:24:08;;;;;;;21.85;4.05;;;;;;;13.60;100.00;96724.41;5057007;28;20399;-85
2023/03/23 10:26:59;;;;;;;21.10;4.65;;;;;;;13.60;100.00;96723.63;5061501;28;20071;-86
2023/03/23 10:29:55;;;;;;;22.10;3.60;;;;;;;13.77;100.00;96718.00;5063260;28;20052;-84
2023/03/23 10:33:13;;;;;;;22.10;4.28;;;;;;;14.00;100.00;96738.41;5065973;28;20098;-87
2023/03/23 10:36:10;;;;;;;19.95;4.13;;;;;;;14.06;100.00;96704.09;5070175;28;20095;-86
2023/03/23 10:39:05;;;;;;;23.75;4.45;;;;;;;14.16;100.00;96714.56;5061813;28;20552;-86
2023/03/23 10:41:50;;;;;;;16.33;4.03;;;;;;;14.20;100.00;96714.81;5059923;28;20111;-84
2023/03/23 10:44:35;;;;;;;24.02;4.70;;;;;;;13.95;100.00;96732.38;5062319;28;20101;-85
2023/03/23 10:47:19;;;;;;;23.83;6.40;;;;;;;14.28;100.00;96730.06;5065138;28;20497;-87
2023/03/23 10:50:05;;;;;;;19.15;5.57;;;;;;;14.52;100.00;96734.59;5062767;28;20128;-86
2023/03/23 10:52:59;;;;;;;18.63;4.35;;;;;;;14.65;100.00;96715.50;5066868;28;20036;-85
2023/03/23 10:55:44;;;;;;;21.70;3.97;;;;;;;14.69;100.00;96715.75;5063856;28;20086;-87
2023/03/23 10:58:34;;;;;;;20.42;4.13;;;;;;;14.85;100.00;96716.41;5059225;28;20032;-85
2023/03/23 11:01:27;;;;;;;22.23;4.30;;;;;;;15.16;100.00;96737.22;5056706;28;20063;-84
2023/03/23 11:04:15;;;;;;;20.08;3.97;;;;;;;15.02;100.00;96720.47;5062334;28;20035;-84
2023/03/23 11:07:02;;;;;;;26.10;4.25;;;;;;;15.31;100.00;96709.03;5061227;28;20055;-84
2023/03/23 11:10:03;;;;;;;24.13;4.93;;;;;;;15.30;100.00;96708.25;5067692;28;20043;-85
2023/03/23 11:12:47;;;;;;;22.67;3.85;;;;;;;14.88;100.00;96696.56;5058668;28;20052;-84
2023/03/23 11:15:39;;;;;;;22.00;3.83;;;;;;;14.70;100.00;96702.25;5067774;28;20063;-87
2023/03/23 11:18:24;;;;;;;15.50;3.65;;;;;;;15.55;100.00;96709.81;5061122;28;20027;-85
2023/03/23 11:21:12;;;;;;;12.48;3.47;;;;;;;15.67;100.00;96704.09;5062004;28;20056;-89
2023/03/23 11:24:00;;;;;;;21.25;4.97;;;;;;;16.01;99.50;96715.56;5066300;28;20166;-89
2023/03/23 11:26:45;;;;;;;19.67;3.55;;;;;;;16.16;100.00;96729.63;5069724;28;20073;-87
2023/03/23 11:29:30;;;;;;;16.15;3.50;;;;;;;16.44;100.00;96716.50;5062000;28;20046;-86
2023/03/23 11:32:16;;;;;;;18.27;3.70;;;;;;;16.51;99.17;96732.81;5057587;28;20059;-86
2023/03/23 11:35:05;;;;;;;17.02;3.60;;;;;;;16.37;96.38;96725.59;5065927;28;20509;-88
2023/03/23 11:37:59;;;;;;;17.77;4.15;;;;;;;15.77;96.83;96769.28;5063675;28;20418;-88
2023/03/23 11:40:48;;;;;;;16.08;3.83;;;;;;;14.99;100.00;96793.91;5062833;28;20048;-88
2023/03/23 11:43:38;;;;;;;17.13;4.00;;;;;;;14.90;100.00;96792.94;5063852;28;20130;-90
2023/03/23 11:46:41;;;;;;;14.57;2.70;;;;;;;14.06;100.00;96820.94;5060207;28;20044;-90
2023/03/23 11:49:37;;;;;;;11.02;2.35;;;;;;;14.10;100.00;96827.25;5067973;28;20066;-89
2023/03/23 11:52:56;;;;;;;9.73;2.30;;;;;;;13.48;100.00;96809.03;5059817;28;20094;-88
2023/03/23 11:55:44;;;;;;;11.80;2.17;;;;;;;12.84;100.00;96809.38;5062682;28;20043;-87
2023/03/23 11:58:32;;;;;;;9.10;2.60;;;;;;;12.82;100.00;96787.78;5058807;28;20433;-87
2023/03/23 12:01:21;;;;;;;17.25;3.28;;;;;;;13.06;100.00;96787.22;5057659;28;20090;-87
2023/03/23 12:04:17;;;;;;;11.50;3.13;;;;;;;13.35;100.00;96778.75;5061635;28;20067;-87
2023/03/23 12:07:37;;;;;;;13.18;3.50;;;;;;;13.20;100.00;96763.78;5067079;28;20097;-88
2023/03/23 12:10:41;;;;;;;14.70;3.60;;;;;;;14.07;100.00;96793.50;5065661;28;20044;-89
2023/03/23 12:13:39;;;;;;;19.38;4.18;;;;;;;14.18;100.00;96775.75;5065626;28;20093;-88
2023/03/23 12:16:45;;;;;;;15.32;3.58;;;;;;;14.72;100.00;96754.81;5059020;28;20077;-88
2023/03/23 12:20:14;;;;;;;12.40;3.72;;;;;;;15.26;100.00;96745.03;5060536;28;20063;-91
2023/03/23 12:23:19;;;;;;;14.88;3.53;;;;;;;15.42;100.00;96748.28;5056813;28;20410;-92
2023/03/23 12:26:14;;;;;;;14.40;3.70;;;;;;;15.59;100.00;96746.25;5060617;28;20098;-90
2023/03/23 12:29:18;;;;;;;16.90;4.00;;;;;;;16.00;100.00;96724.56;5065005;28;20173;-90
2023/03/23 12:32:33;;;;;;;15.65;4.30;;;;;;;16.21;100.00;96750.72;5054713;28;20133;-85
2023/03/23 12:35:29;;;;;;;24.30;5.28;;;;;;;16.30;100.00;96748.97;5061362;28;20115;-84
2023/03/23 12:38:48;;;;;;;15.80;3.90;;;;;;;16.03;100.00;96717.91;5063669;28;20497;-85
2023/03/23 12:41:45;;;;;;;16.77;4.00;;;;;;;16.33;100.00;96750.28;5056282;28;20124;-83
2023/03/23 12:44:45;;;;;;;14.48;4.15;;;;;;;17.17;99.37;96750.47;5056124;28;20082;-84
2023/03/23 12:47:48;;;;;;;18.15;3.42;;;;;;;17.24;97.72;96780.06;5059873;28;20034;-85
2023/03/23 12:50:48;;;;;;;6.55;1.70;;;;;;;16.54;93.52;96774.59;5056447;28;20497;-85
2023/03/23 12:53:42;;;;;;;4.78;2.10;;;;;;;16.14;91.43;96753.72;5052544;28;20510;-81
2023/03/23 12:56:26;;;;;;;10.98;2.15;;;;;;;15.92;92.93;96755.09;5053705;28;20063;-82
2023/03/23 12:59:36;;;;;;;10.63;2.08;;;;;;;15.57;95.71;96744.69;5058672;28;20107;-82
2023/03/23 13:02:30;;;;;;;12.52;2.95;;;;;;;15.36;97.75;96753.91;5056850;28;20492;-81
2023/03/23 13:05:26;;;;;;;13.68;2.75;;;;;;;16.11;96.48;96736.59;5055431;28;20166;-81